Portland International Airport
KPDX : now visible

Airfield :











YOU CAN JOIN US ON...

 
LOGIN :

Register | Disclaimer

   EN    FR    IT 

 









Legend :    VFR   Marginal VFR   IFR   Intensive IFR   Very Intensive IFR
Visi :
Ceiling :
>= 8 km
>= 3000ft
5 to 8 km
1000 to 3000 ft
1500m to 5 km
500 to 1000 ft
800 to 1500m
200 to 500 ft
< 800m
< 200 ft
Symbols :   Thunderstorms  Fog  Heavy snow  Heavy precipitations  Wind > 20 kt






- Airport Elevation : 31 ft
- IATA code : PDX


KPDX - Portland International

CURRENT METAR :
  • 100353Z 33008KT 10SM CLR 24/08 A3013 RMK AO2 SLP200 T02390083

EXPIRED METARs :
  • 100253Z 32009KT 10SM CLR 26/08 A3012 RMK AO2 SLP199 T02560083 55006
  • 100153Z 32015G19KT 10SM CLR 27/08 A3012 RMK AO2 SLP198 T02670083

TAF KPDX
Valid from the 10 at 03:00 until the 11 at 00:00 UTC


100312Z 1003/1024 32009KT P6SM SKC
FM100900 33003KT P6SM SKC
FM102000 31008KT P6SM SKC
KZSE FIR / North America



MET'MAP, your aeronautical weather chart ! - Copyright ORBIFLY December 2007 - Disclaimer

ORBIFLY MET'MAP TEAM :

Programming & Development : Alexandra Zaïnal
Concept & original design : Baudouin d'Aumeries
Assistance for programming : Marc-Olivier Méhu
Technical & hardware support : Manuel Goepfert

Contact : metmap@orbifly.com




SOURCES & CREDITS :

   NOAA       Earth
Advisory